createdAt,value
2018-09-29T00:00:44.051Z,19.59
2018-09-29T00:01:43.864Z,19.59
2018-09-29T00:02:44.283Z,19.57
2018-09-29T00:03:43.918Z,19.58
2018-09-29T00:04:43.964Z,19.59
2018-09-29T00:05:44.023Z,19.57
2018-09-29T00:06:43.886Z,19.58
2018-09-29T00:07:44.023Z,19.59
2018-09-29T00:08:44.080Z,19.58
2018-09-29T00:09:43.815Z,19.57
2018-09-29T00:10:43.935Z,19.58
2018-09-29T00:11:44.108Z,19.57
2018-09-29T00:12:43.914Z,19.59
2018-09-29T00:13:43.989Z,19.56
2018-09-29T00:14:43.978Z,19.58
2018-09-29T00:15:43.912Z,19.57
2018-09-29T00:16:44.012Z,19.58
2018-09-29T00:17:43.980Z,19.59
2018-09-29T00:18:43.902Z,19.59
2018-09-29T00:19:43.866Z,19.57
2018-09-29T00:20:44.285Z,19.56
2018-09-29T00:21:43.987Z,19.56
2018-09-29T00:22:43.875Z,19.56
2018-09-29T00:23:44.239Z,19.56
2018-09-29T00:24:44.158Z,19.57
2018-09-29T00:25:44.005Z,19.56
2018-09-29T00:26:43.817Z,19.56
2018-09-29T00:27:43.861Z,19.58
2018-09-29T00:28:44.080Z,19.56
2018-09-29T00:29:44.205Z,19.56
2018-09-29T00:30:43.962Z,19.55
2018-09-29T00:31:44.222Z,19.55
2018-09-29T00:32:44.001Z,19.56
2018-09-29T00:33:43.994Z,19.56
2018-09-29T00:34:44.047Z,19.54
2018-09-29T00:35:44.256Z,19.55
2018-09-29T00:36:43.831Z,19.54
2018-09-29T00:37:43.881Z,19.54
2018-09-29T00:38:43.854Z,19.54
2018-09-29T00:39:44.085Z,19.54
2018-09-29T00:40:44.058Z,19.54
2018-09-29T00:41:43.893Z,19.54
2018-09-29T00:42:43.927Z,19.55
2018-09-29T00:43:43.995Z,19.56
2018-09-29T00:44:43.755Z,19.55
2018-09-29T00:45:44.065Z,19.54
2018-09-29T00:46:43.887Z,19.54
2018-09-29T00:47:44.093Z,19.55
2018-09-29T00:48:44.100Z,19.55
2018-09-29T00:49:44.092Z,19.54
2018-09-29T00:50:44.046Z,19.54
2018-09-29T00:51:43.882Z,19.54
2018-09-29T00:52:44.241Z,19.53
2018-09-29T00:53:44.317Z,19.54
2018-09-29T00:54:43.969Z,19.54
2018-09-29T00:55:43.967Z,19.53
2018-09-29T00:56:44.085Z,19.52
2018-09-29T00:57:43.978Z,19.53
2018-09-29T00:58:44.219Z,19.52
2018-09-29T00:59:44.026Z,19.53
2018-09-29T01:00:44.202Z,19.51
2018-09-29T01:01:44.336Z,19.52
2018-09-29T01:02:43.774Z,19.52
2018-09-29T01:03:43.913Z,19.51
2018-09-29T01:04:44.034Z,19.53
2018-09-29T01:05:43.917Z,19.52
2018-09-29T01:06:44.003Z,19.51
2018-09-29T01:07:44.079Z,19.51
2018-09-29T01:08:43.901Z,19.52
2018-09-29T01:09:43.943Z,19.52
2018-09-29T01:10:43.958Z,19.52
2018-09-29T01:11:43.983Z,19.52
2018-09-29T01:12:43.758Z,19.51
2018-09-29T01:13:43.918Z,19.52
2018-09-29T01:14:43.805Z,19.51
2018-09-29T01:15:43.913Z,19.5
2018-09-29T01:16:43.762Z,19.52
2018-09-29T01:17:43.926Z,19.51
2018-09-29T01:18:44.314Z,19.5
2018-09-29T01:19:43.928Z,19.51
2018-09-29T01:20:43.891Z,19.51
2018-09-29T01:21:43.728Z,19.51
2018-09-29T01:22:43.958Z,19.54
2018-09-29T01:23:43.843Z,19.52
2018-09-29T01:24:43.831Z,19.52
2018-09-29T01:25:43.914Z,19.51
2018-09-29T01:26:43.843Z,19.52
2018-09-29T01:27:44.146Z,19.51
2018-09-29T01:28:43.836Z,19.51
2018-09-29T01:29:43.898Z,19.49
2018-09-29T01:30:43.841Z,19.51
2018-09-29T01:31:43.896Z,19.51
2018-09-29T01:32:43.772Z,19.5
2018-09-29T01:33:44.111Z,19.51
2018-09-29T01:34:43.976Z,19.49
2018-09-29T01:35:43.874Z,19.49
2018-09-29T01:36:44.149Z,19.49
2018-09-29T01:37:44.241Z,19.51
2018-09-29T01:38:43.746Z,19.49
2018-09-29T01:39:43.964Z,19.49
2018-09-29T01:40:43.971Z,19.49
2018-09-29T01:41:43.850Z,19.5
2018-09-29T01:42:43.895Z,19.5
2018-09-29T01:43:44.094Z,19.5
2018-09-29T01:44:43.872Z,19.49
2018-09-29T01:45:44.108Z,19.5
2018-09-29T01:46:44.105Z,19.51
2018-09-29T01:47:43.987Z,19.49
2018-09-29T01:48:44.108Z,19.49
2018-09-29T01:49:43.878Z,19.51
2018-09-29T01:50:44.113Z,19.49
2018-09-29T01:51:44.059Z,19.49
2018-09-29T01:52:43.789Z,19.48
2018-09-29T01:53:43.861Z,19.5
2018-09-29T01:54:43.797Z,19.49
2018-09-29T01:55:43.795Z,19.49
2018-09-29T01:56:44.152Z,19.48
2018-09-29T01:57:43.808Z,19.51
2018-09-29T01:58:43.934Z,19.49
2018-09-29T01:59:43.852Z,19.5
2018-09-29T02:00:44.360Z,19.5
2018-09-29T02:01:44.105Z,19.48
2018-09-29T02:02:43.775Z,19.49
2018-09-29T02:03:43.896Z,19.49
2018-09-29T02:04:44.080Z,19.49
2018-09-29T02:05:43.748Z,19.48
2018-09-29T02:06:44.040Z,19.49
2018-09-29T02:07:44.092Z,19.49
2018-09-29T02:08:43.822Z,19.49
2018-09-29T02:09:44.301Z,19.48
2018-09-29T02:10:43.817Z,19.46
2018-09-29T02:11:44.052Z,19.46
2018-09-29T02:12:43.922Z,19.46
2018-09-29T02:13:43.929Z,19.46
2018-09-29T02:14:44.069Z,19.46
2018-09-29T02:15:44.116Z,19.45
2018-09-29T02:16:43.964Z,19.46
2018-09-29T02:17:43.885Z,19.46
2018-09-29T02:18:44.139Z,19.45
2018-09-29T02:19:44.082Z,19.45
2018-09-29T02:20:43.781Z,19.45
2018-09-29T02:21:43.873Z,19.45
2018-09-29T02:22:43.760Z,19.46
2018-09-29T02:23:43.848Z,19.47
2018-09-29T02:24:43.933Z,19.48
2018-09-29T02:25:43.947Z,19.47
2018-09-29T02:26:43.975Z,19.48
2018-09-29T02:27:43.743Z,19.46
2018-09-29T02:28:43.766Z,19.47
2018-09-29T02:29:43.868Z,19.48
2018-09-29T02:30:43.804Z,19.48
2018-09-29T02:31:43.812Z,19.46
2018-09-29T02:32:43.854Z,19.47
2018-09-29T02:33:43.791Z,19.45
2018-09-29T02:34:43.801Z,19.46
2018-09-29T02:35:43.968Z,19.45
2018-09-29T02:36:43.886Z,19.44
2018-09-29T02:37:43.811Z,19.46
2018-09-29T02:38:43.971Z,19.46
2018-09-29T02:39:43.890Z,19.46
2018-09-29T02:40:43.896Z,19.47
2018-09-29T02:41:43.687Z,19.47
2018-09-29T02:42:43.805Z,19.45
2018-09-29T02:43:43.802Z,19.48
2018-09-29T02:44:43.695Z,19.46
2018-09-29T02:45:43.825Z,19.47
2018-09-29T02:46:43.867Z,19.47
2018-09-29T02:47:44.056Z,19.46
2018-09-29T02:48:43.836Z,19.44
2018-09-29T02:49:44.079Z,19.45
2018-09-29T02:50:43.904Z,19.44
2018-09-29T02:51:43.761Z,19.44
2018-09-29T02:52:44.061Z,19.44
2018-09-29T02:53:44.041Z,19.45
2018-09-29T02:54:43.762Z,19.45
2018-09-29T02:55:43.978Z,19.43
2018-09-29T02:56:43.923Z,19.42
2018-09-29T02:57:43.806Z,19.43
2018-09-29T02:58:44.317Z,19.46
2018-09-29T02:59:43.715Z,19.46
2018-09-29T03:00:43.919Z,19.43
2018-09-29T03:01:44.102Z,19.43
2018-09-29T03:02:43.829Z,19.43
2018-09-29T03:03:43.872Z,19.42
2018-09-29T03:04:43.663Z,19.43
2018-09-29T03:05:43.875Z,19.41
2018-09-29T03:06:43.968Z,19.43
2018-09-29T03:07:43.783Z,19.43
2018-09-29T03:08:43.939Z,19.43
2018-09-29T03:09:43.877Z,19.42
2018-09-29T03:10:44.106Z,19.44
2018-09-29T03:11:43.750Z,19.44
2018-09-29T03:12:43.822Z,19.42
2018-09-29T03:13:43.919Z,19.42
2018-09-29T03:14:44.012Z,19.43
2018-09-29T03:15:43.768Z,19.42
2018-09-29T03:16:43.773Z,19.4
2018-09-29T03:17:43.837Z,19.42
2018-09-29T03:18:44.043Z,19.42
2018-09-29T03:19:43.836Z,19.41
2018-09-29T03:20:44.175Z,19.43
2018-09-29T03:21:43.711Z,19.42
2018-09-29T03:22:44.287Z,19.43
2018-09-29T03:23:44.029Z,19.43
2018-09-29T03:24:43.748Z,19.43
2018-09-29T03:25:43.895Z,19.43
2018-09-29T03:26:43.775Z,19.42
2018-09-29T03:27:44.140Z,19.44
2018-09-29T03:28:43.795Z,19.43
2018-09-29T03:29:43.948Z,19.44
2018-09-29T03:30:43.903Z,19.42
2018-09-29T03:31:44.066Z,19.42
2018-09-29T03:32:44.115Z,19.41
2018-09-29T03:33:43.840Z,19.4
2018-09-29T03:34:43.858Z,19.41
2018-09-29T03:35:43.852Z,19.4
2018-09-29T03:36:43.800Z,19.41
2018-09-29T03:37:43.859Z,19.41
2018-09-29T03:38:43.951Z,19.42
2018-09-29T03:39:44.006Z,19.42
2018-09-29T03:40:44.260Z,19.43
2018-09-29T03:41:43.832Z,19.42
2018-09-29T03:42:43.852Z,19.41
2018-09-29T03:43:43.685Z,19.4
2018-09-29T03:44:43.909Z,19.41
2018-09-29T03:45:43.988Z,19.4
2018-09-29T03:46:44.048Z,19.41
2018-09-29T03:47:44.090Z,19.4
2018-09-29T03:48:43.835Z,19.4
2018-09-29T03:49:44.055Z,19.4
2018-09-29T03:50:43.665Z,19.4
2018-09-29T03:51:43.999Z,19.4
2018-09-29T03:52:43.719Z,19.4
2018-09-29T03:53:44.075Z,19.39
2018-09-29T03:54:43.904Z,19.4
2018-09-29T03:55:43.867Z,19.41
2018-09-29T03:56:43.710Z,19.41
2018-09-29T03:57:44.321Z,19.41
2018-09-29T03:58:43.844Z,19.41
2018-09-29T03:59:43.804Z,19.4
2018-09-29T04:00:43.826Z,19.39
2018-09-29T04:01:43.966Z,19.42
2018-09-29T04:02:43.908Z,19.41
2018-09-29T04:03:43.661Z,19.4
2018-09-29T04:04:43.696Z,19.4
2018-09-29T04:05:43.845Z,19.39
2018-09-29T04:06:43.869Z,19.38
2018-09-29T04:07:43.884Z,19.39
2018-09-29T04:08:43.759Z,19.4
2018-09-29T04:09:43.896Z,19.4
2018-09-29T04:10:44.004Z,19.39
2018-09-29T04:11:43.781Z,19.39
2018-09-29T04:12:43.954Z,19.39
2018-09-29T04:13:43.926Z,19.39
2018-09-29T04:14:43.886Z,19.39
2018-09-29T04:15:43.889Z,19.38
2018-09-29T04:16:43.774Z,19.39
2018-09-29T04:17:43.965Z,19.4
2018-09-29T04:18:43.793Z,19.37
2018-09-29T04:19:44.022Z,19.38
2018-09-29T04:20:43.798Z,19.39
2018-09-29T04:21:43.898Z,19.39
2018-09-29T04:22:43.742Z,19.4
2018-09-29T04:23:43.803Z,19.4
2018-09-29T04:24:43.968Z,19.4
2018-09-29T04:25:43.938Z,19.41
2018-09-29T04:26:44.045Z,19.41
2018-09-29T04:27:43.917Z,19.41
2018-09-29T04:28:43.728Z,19.42
2018-09-29T04:29:43.939Z,19.41
2018-09-29T04:30:44.003Z,19.4
2018-09-29T04:31:43.783Z,19.4
2018-09-29T04:32:43.741Z,19.4
2018-09-29T04:33:44.069Z,19.41
2018-09-29T04:34:43.656Z,19.39
2018-09-29T04:35:43.957Z,19.4
2018-09-29T04:36:43.849Z,19.39
2018-09-29T04:37:44.013Z,19.4
2018-09-29T04:38:43.932Z,19.39
2018-09-29T04:39:43.910Z,19.39
2018-09-29T04:40:44.159Z,19.4
2018-09-29T04:41:44.010Z,19.39
2018-09-29T04:42:44.129Z,19.38
2018-09-29T04:43:43.955Z,19.37
2018-09-29T04:44:44.217Z,19.38
2018-09-29T04:45:43.733Z,19.37
2018-09-29T04:46:44.376Z,19.36
2018-09-29T04:47:43.832Z,19.36
2018-09-29T04:48:44.042Z,19.37
2018-09-29T04:49:43.702Z,19.36
2018-09-29T04:50:43.986Z,19.36
2018-09-29T04:51:43.804Z,19.38
2018-09-29T04:52:44.133Z,19.38
2018-09-29T04:53:43.774Z,19.36
2018-09-29T04:54:43.780Z,19.36
2018-09-29T04:55:43.815Z,19.35
2018-09-29T04:56:43.987Z,19.36
2018-09-29T04:57:44.180Z,19.35
2018-09-29T04:58:44.197Z,19.36
2018-09-29T04:59:43.786Z,19.36
2018-09-29T05:00:43.962Z,19.37
2018-09-29T05:01:44.103Z,19.38
2018-09-29T05:02:43.750Z,19.37
2018-09-29T05:03:43.904Z,19.37
2018-09-29T05:04:44.019Z,19.37
2018-09-29T05:05:43.738Z,19.37
2018-09-29T05:06:43.732Z,19.37
2018-09-29T05:07:43.731Z,19.37
2018-09-29T05:08:43.749Z,19.36
2018-09-29T05:09:43.968Z,19.37
2018-09-29T05:10:44.087Z,19.36
2018-09-29T05:11:43.856Z,19.37
2018-09-29T05:12:43.770Z,19.36
2018-09-29T05:13:43.726Z,19.36
2018-09-29T05:14:43.722Z,19.37
2018-09-29T05:15:44.079Z,19.36
2018-09-29T05:16:43.680Z,19.37
2018-09-29T05:17:43.811Z,19.36
2018-09-29T05:18:43.729Z,19.36
2018-09-29T05:19:43.686Z,19.37
2018-09-29T05:20:43.786Z,19.37
2018-09-29T05:21:43.720Z,19.37
2018-09-29T05:22:43.846Z,19.39
2018-09-29T05:23:43.682Z,19.38
2018-09-29T05:24:43.820Z,19.38
2018-09-29T05:25:44.055Z,19.38
2018-09-29T05:26:43.684Z,19.38
2018-09-29T05:27:43.832Z,19.38
2018-09-29T05:28:44.272Z,19.39
2018-09-29T05:29:43.650Z,19.39
2018-09-29T05:30:44.013Z,19.39
2018-09-29T05:31:43.838Z,19.4
2018-09-29T05:32:43.661Z,19.4
2018-09-29T05:33:43.950Z,19.39
2018-09-29T05:34:44.204Z,19.4
2018-09-29T05:35:43.637Z,19.39
2018-09-29T05:36:44.038Z,19.39
2018-09-29T05:37:43.897Z,19.39
2018-09-29T05:38:43.889Z,19.4
2018-09-29T05:39:43.717Z,19.4
2018-09-29T05:40:43.697Z,19.38
2018-09-29T05:41:43.734Z,19.37
2018-09-29T05:42:43.669Z,19.37
2018-09-29T05:43:43.778Z,19.38
2018-09-29T05:44:43.664Z,19.38
2018-09-29T05:45:43.877Z,19.37
2018-09-29T05:46:43.700Z,19.37
2018-09-29T05:47:43.852Z,19.36
2018-09-29T05:48:43.715Z,19.37
2018-09-29T05:49:43.620Z,19.37
2018-09-29T05:50:43.814Z,19.37
2018-09-29T05:51:43.971Z,19.37
2018-09-29T05:52:43.719Z,19.37
2018-09-29T05:53:44.054Z,19.37
2018-09-29T05:54:43.715Z,19.36
2018-09-29T05:55:44.381Z,19.37
2018-09-29T05:56:43.874Z,19.38
2018-09-29T05:57:44.190Z,19.37
2018-09-29T05:58:43.675Z,19.36
2018-09-29T05:59:43.988Z,19.36
2018-09-29T06:00:43.893Z,19.35
2018-09-29T06:01:43.930Z,19.37
2018-09-29T06:02:43.667Z,19.36
2018-09-29T06:03:43.723Z,19.35
2018-09-29T06:04:44.132Z,19.36
2018-09-29T06:05:43.889Z,19.37
2018-09-29T06:06:43.714Z,19.36
2018-09-29T06:07:43.935Z,19.37
2018-09-29T06:08:43.833Z,19.37
2018-09-29T06:09:43.799Z,19.38
2018-09-29T06:10:44.055Z,19.37
2018-09-29T06:11:44.057Z,19.37
2018-09-29T06:12:43.783Z,19.39
2018-09-29T06:13:44.055Z,19.37
2018-09-29T06:14:43.734Z,19.38
2018-09-29T06:15:44.046Z,19.35
2018-09-29T06:16:43.825Z,19.36
2018-09-29T06:17:43.832Z,19.37
2018-09-29T06:18:44.107Z,19.38
2018-09-29T06:19:44.036Z,19.36
2018-09-29T06:20:44.010Z,19.37
2018-09-29T06:21:43.821Z,19.36
2018-09-29T06:22:44.076Z,19.36
2018-09-29T06:23:44.057Z,19.38
2018-09-29T06:24:43.636Z,19.38
2018-09-29T06:25:43.926Z,19.36
2018-09-29T06:26:43.636Z,19.35
2018-09-29T06:27:43.941Z,19.35
2018-09-29T06:28:44.005Z,19.35
2018-09-29T06:29:43.824Z,19.37
2018-09-29T06:30:43.854Z,19.36
2018-09-29T06:31:43.680Z,19.36
2018-09-29T06:32:43.663Z,19.36
2018-09-29T06:33:43.789Z,19.36
2018-09-29T06:34:43.817Z,19.34
2018-09-29T06:35:44.016Z,19.36
2018-09-29T06:36:44.659Z,19.37
2018-09-29T06:37:43.760Z,19.36
2018-09-29T06:38:44.270Z,19.36
2018-09-29T06:39:43.977Z,19.35
2018-09-29T06:40:43.805Z,19.37
2018-09-29T06:41:43.916Z,19.36
2018-09-29T06:42:43.970Z,19.35
2018-09-29T06:43:43.739Z,19.36
2018-09-29T06:44:43.700Z,19.35
2018-09-29T06:45:43.816Z,19.36
2018-09-29T06:46:43.859Z,19.35
2018-09-29T06:47:43.880Z,19.35
2018-09-29T06:48:43.843Z,19.35
2018-09-29T06:49:43.827Z,19.36
2018-09-29T06:50:43.758Z,19.36
2018-09-29T06:51:43.656Z,19.36
2018-09-29T06:52:43.790Z,19.37
2018-09-29T06:53:43.698Z,19.38
2018-09-29T06:54:43.960Z,19.38
2018-09-29T06:55:43.813Z,19.36
2018-09-29T06:56:43.806Z,19.35
2018-09-29T06:57:43.676Z,19.35
2018-09-29T06:58:43.884Z,19.36
2018-09-29T06:59:44.525Z,19.37
2018-09-29T07:00:43.758Z,19.35
2018-09-29T07:01:43.983Z,19.36
2018-09-29T07:02:43.751Z,19.35
2018-09-29T07:03:43.886Z,19.36
2018-09-29T07:04:43.753Z,19.36
2018-09-29T07:05:44.025Z,19.37
2018-09-29T07:06:43.806Z,19.35
2018-09-29T07:07:43.924Z,19.34
2018-09-29T07:08:43.918Z,19.35
2018-09-29T07:09:43.743Z,19.35
2018-09-29T07:10:43.773Z,19.36
2018-09-29T07:11:43.746Z,19.35
2018-09-29T07:12:43.919Z,19.34
2018-09-29T07:13:44.163Z,19.34
2018-09-29T07:14:43.868Z,19.35
2018-09-29T07:15:43.774Z,19.34
2018-09-29T07:16:44.299Z,19.35
2018-09-29T07:17:43.999Z,19.34
2018-09-29T07:18:43.752Z,19.35
2018-09-29T07:19:43.724Z,19.34
2018-09-29T07:20:43.991Z,19.35
2018-09-29T07:21:44.133Z,19.34
2018-09-29T07:22:43.745Z,19.34
2018-09-29T07:23:43.747Z,19.34
2018-09-29T07:24:43.961Z,19.33
2018-09-29T07:25:44.265Z,19.34
2018-09-29T07:26:43.874Z,19.35
2018-09-29T07:27:43.747Z,19.36
2018-09-29T07:28:43.963Z,19.35
2018-09-29T07:29:43.676Z,19.35
2018-09-29T07:30:43.854Z,19.35
2018-09-29T07:31:43.888Z,19.36
2018-09-29T07:32:43.940Z,19.37
2018-09-29T07:33:43.984Z,19.36
2018-09-29T07:34:44.010Z,19.37
2018-09-29T07:35:43.926Z,19.37
2018-09-29T07:36:43.713Z,19.36
2018-09-29T07:37:43.938Z,19.35
2018-09-29T07:38:44.024Z,19.36
2018-09-29T07:39:44.121Z,19.35
2018-09-29T07:40:43.692Z,19.35
2018-09-29T07:41:43.773Z,19.34
2018-09-29T07:42:43.717Z,19.34
2018-09-29T07:43:43.974Z,19.35
2018-09-29T07:44:44.158Z,19.34
2018-09-29T07:45:43.811Z,19.34
2018-09-29T07:46:44.191Z,19.37
2018-09-29T07:47:43.728Z,19.35
2018-09-29T07:48:44.197Z,19.34
2018-09-29T07:49:44.019Z,19.34
2018-09-29T07:50:44.117Z,19.33
2018-09-29T07:51:43.886Z,19.34
2018-09-29T07:52:43.811Z,19.35
2018-09-29T07:53:43.841Z,19.34
2018-09-29T07:54:44.055Z,19.33
2018-09-29T07:55:43.846Z,19.33
2018-09-29T07:56:43.698Z,19.34
2018-09-29T07:57:44.578Z,19.34
2018-09-29T07:58:44.078Z,19.33
2018-09-29T07:59:44.173Z,19.35
2018-09-29T08:00:43.705Z,19.36
2018-09-29T08:01:43.898Z,19.35
2018-09-29T08:02:43.791Z,19.35
2018-09-29T08:03:43.962Z,19.33
2018-09-29T08:04:43.727Z,19.35
2018-09-29T08:05:43.856Z,19.33
2018-09-29T08:06:43.652Z,19.32
2018-09-29T08:07:43.720Z,19.31
2018-09-29T08:08:43.966Z,19.33
2018-09-29T08:09:44.044Z,19.31
2018-09-29T08:10:43.832Z,19.32
2018-09-29T08:11:43.734Z,19.33
2018-09-29T08:12:43.721Z,19.32
2018-09-29T08:13:43.908Z,19.32
2018-09-29T08:14:43.818Z,19.32
2018-09-29T08:15:43.739Z,19.32
2018-09-29T08:16:43.820Z,19.35
2018-09-29T08:17:43.835Z,19.34
2018-09-29T08:18:44.027Z,19.34
2018-09-29T08:19:43.913Z,19.31
2018-09-29T08:20:43.817Z,19.28
2018-09-29T08:21:43.775Z,19.23
2018-09-29T08:22:43.815Z,19.17
2018-09-29T08:23:43.721Z,19.03
2018-09-29T08:24:43.706Z,19
2018-09-29T08:25:43.775Z,18.95
2018-09-29T08:26:44.064Z,18.91
2018-09-29T08:27:44.222Z,18.93
2018-09-29T08:28:43.884Z,18.96
2018-09-29T08:29:43.605Z,19.03
2018-09-29T08:30:43.826Z,19.05
2018-09-29T08:31:43.711Z,19.03
2018-09-29T08:32:44.037Z,19.07
2018-09-29T08:33:43.950Z,19.09
2018-09-29T08:34:44.012Z,19.08
2018-09-29T08:35:43.688Z,19.11
2018-09-29T08:36:43.868Z,19.15
2018-09-29T08:37:43.836Z,19.14
2018-09-29T08:38:43.867Z,19.13
2018-09-29T08:39:43.803Z,19.16
2018-09-29T08:40:43.685Z,19.17
2018-09-29T08:41:43.686Z,19.18
2018-09-29T08:42:43.966Z,19.17
2018-09-29T08:43:43.806Z,19.19
2018-09-29T08:44:44.176Z,19.18
2018-09-29T08:45:43.844Z,19.2
2018-09-29T08:46:43.799Z,19.22
2018-09-29T08:47:43.932Z,19.22
2018-09-29T08:48:43.654Z,19.23
2018-09-29T08:49:43.858Z,19.24
2018-09-29T08:50:43.645Z,19.24
2018-09-29T08:51:43.687Z,19.24
2018-09-29T08:52:43.818Z,19.24
2018-09-29T08:53:43.929Z,19.23
2018-09-29T08:54:43.776Z,19.25
2018-09-29T08:55:43.966Z,19.26
2018-09-29T08:56:43.735Z,19.26
2018-09-29T08:57:43.748Z,19.26
2018-09-29T08:58:43.751Z,19.26
2018-09-29T08:59:43.780Z,19.26
2018-09-29T09:00:43.785Z,19.25
2018-09-29T09:01:43.633Z,19.29
2018-09-29T09:02:43.739Z,19.27
2018-09-29T09:03:43.723Z,19.26
2018-09-29T09:04:43.713Z,19.28
2018-09-29T09:05:43.703Z,19.29
2018-09-29T09:06:43.905Z,19.28
2018-09-29T09:07:43.704Z,19.27
2018-09-29T09:08:43.755Z,19.26
2018-09-29T09:09:43.936Z,19.26
2018-09-29T09:10:43.613Z,19.27
2018-09-29T09:11:43.683Z,19.26
2018-09-29T09:12:43.849Z,19.25
2018-09-29T09:13:44.031Z,19.25
2018-09-29T09:14:44.105Z,19.26
2018-09-29T09:15:43.997Z,19.25
2018-09-29T09:16:43.772Z,19.26
2018-09-29T09:17:43.704Z,19.27
2018-09-29T09:18:43.653Z,19.26
2018-09-29T09:19:43.930Z,19.26
2018-09-29T09:20:43.769Z,19.26
2018-09-29T09:21:43.937Z,19.26
2018-09-29T09:22:43.915Z,19.24
2018-09-29T09:23:43.809Z,19.26
2018-09-29T09:24:43.783Z,19.25
2018-09-29T09:25:43.953Z,19.25
2018-09-29T09:26:44.084Z,19.24
2018-09-29T09:27:44.111Z,19.25
2018-09-29T09:28:43.848Z,19.24
2018-09-29T09:29:43.870Z,19.26
2018-09-29T09:30:43.760Z,19.24
2018-09-29T09:31:43.771Z,19.24
2018-09-29T09:32:43.851Z,19.24
2018-09-29T09:33:43.785Z,19.24
2018-09-29T09:34:43.767Z,19.24
2018-09-29T09:35:43.871Z,19.26
2018-09-29T09:36:43.633Z,19.26
2018-09-29T09:37:43.824Z,19.25
2018-09-29T09:38:43.632Z,19.26
2018-09-29T09:39:43.694Z,19.24
2018-09-29T09:40:43.693Z,19.24
2018-09-29T09:41:43.735Z,19.26
2018-09-29T09:42:43.891Z,19.24
2018-09-29T09:43:43.589Z,19.23
2018-09-29T09:44:43.843Z,19.25
2018-09-29T09:45:43.596Z,19.24
2018-09-29T09:46:43.605Z,19.23
2018-09-29T09:47:43.569Z,19.24
2018-09-29T09:50:43.804Z,19.24
2018-09-29T09:51:43.973Z,19.23
2018-09-29T09:52:43.854Z,19.24
2018-09-29T09:53:43.708Z,19.24
2018-09-29T09:55:43.992Z,19.24
2018-09-29T09:56:43.875Z,19.23
2018-09-29T09:57:43.812Z,19.23
2018-09-29T09:58:43.945Z,19.23
2018-09-29T10:00:43.691Z,19.24
2018-09-29T10:01:43.875Z,19.23
2018-09-29T10:02:43.832Z,19.23
2018-09-29T10:03:43.787Z,19.24
2018-09-29T10:05:44.051Z,19.23
2018-09-29T10:06:43.637Z,19.23
2018-09-29T10:07:43.884Z,19.21
2018-09-29T10:08:43.862Z,19.23
2018-09-29T10:10:43.806Z,19.21
2018-09-29T10:11:43.912Z,19.24
2018-09-29T10:12:43.784Z,19.23
2018-09-29T10:13:44.024Z,19.23
2018-09-29T10:15:43.874Z,19.22
2018-09-29T10:16:43.789Z,19.22
2018-09-29T10:17:43.757Z,19.24
2018-09-29T10:18:43.674Z,19.22
2018-09-29T10:20:43.759Z,19.26
2018-09-29T10:21:44.070Z,19.3
2018-09-29T10:23:44.090Z,19.31
2018-09-29T10:24:43.847Z,19.3
2018-09-29T10:26:43.672Z,19.33
2018-09-29T10:28:43.870Z,19.36
2018-09-29T10:29:43.932Z,19.37
2018-09-29T10:30:44.253Z,19.39
2018-09-29T10:31:43.783Z,19.39
2018-09-29T10:33:43.816Z,19.4
2018-09-29T10:34:43.942Z,19.39
2018-09-29T10:36:43.703Z,19.43
2018-09-29T10:37:43.791Z,19.42
2018-09-29T10:38:43.634Z,19.45
2018-09-29T10:39:43.856Z,19.44
2018-09-29T10:41:43.712Z,19.47
2018-09-29T10:42:43.669Z,19.49
2018-09-29T10:43:43.662Z,19.47
2018-09-29T10:44:43.926Z,19.51
2018-09-29T10:46:43.770Z,19.53
2018-09-29T10:47:43.949Z,19.51
2018-09-29T10:49:43.767Z,19.51
2018-09-29T10:50:43.759Z,19.47
2018-09-29T10:51:43.700Z,19.46
2018-09-29T10:52:43.645Z,19.48
2018-09-29T10:54:43.687Z,19.47
2018-09-29T10:55:43.572Z,19.47
2018-09-29T10:56:43.798Z,19.45
2018-09-29T10:57:43.823Z,19.49
2018-09-29T10:59:43.602Z,19.47
2018-09-29T11:00:43.674Z,19.48
2018-09-29T11:01:43.676Z,19.49
2018-09-29T11:02:43.782Z,19.49
2018-09-29T11:04:43.747Z,19.5
2018-09-29T11:05:43.618Z,19.5
2018-09-29T11:06:43.815Z,19.49
2018-09-29T11:07:43.734Z,19.49
2018-09-29T11:09:44.045Z,19.49
2018-09-29T11:10:43.900Z,19.48
2018-09-29T11:11:43.621Z,19.5
2018-09-29T11:12:43.736Z,19.5
2018-09-29T11:14:43.737Z,19.51
2018-09-29T11:15:43.732Z,19.52
2018-09-29T11:16:43.711Z,19.54
2018-09-29T11:17:43.777Z,19.55
2018-09-29T11:19:43.776Z,19.55
2018-09-29T11:20:43.827Z,19.55
2018-09-29T11:21:43.667Z,19.56
2018-09-29T11:22:43.848Z,19.57
2018-09-29T11:25:43.676Z,19.59
2018-09-29T11:26:43.672Z,19.59
2018-09-29T11:27:44.092Z,19.58
2018-09-29T11:30:43.776Z,19.59
2018-09-29T11:31:43.868Z,19.59
2018-09-29T11:33:43.734Z,19.61
2018-09-29T11:34:43.620Z,19.61
2018-09-29T11:35:43.712Z,19.6
2018-09-29T11:36:43.867Z,19.61
2018-09-29T11:38:43.916Z,19.62
2018-09-29T11:39:43.752Z,19.61
2018-09-29T11:40:43.599Z,19.61
2018-09-29T11:41:43.994Z,19.61
2018-09-29T11:43:43.694Z,19.63
2018-09-29T11:44:43.564Z,19.62
2018-09-29T11:45:43.789Z,19.59
2018-09-29T11:46:43.738Z,19.59
2018-09-29T11:48:43.852Z,19.57
2018-09-29T11:49:44.071Z,19.56
2018-09-29T11:51:43.699Z,19.56
2018-09-29T11:53:43.943Z,19.55
2018-09-29T11:54:43.808Z,19.55
2018-09-29T11:55:43.718Z,19.56
2018-09-29T11:56:43.723Z,19.57
2018-09-29T11:58:43.593Z,19.55
2018-09-29T11:59:43.753Z,19.54
2018-09-29T12:00:43.943Z,19.54
2018-09-29T12:01:43.975Z,19.55
2018-09-29T12:04:43.700Z,19.53
2018-09-29T12:05:43.585Z,19.57
2018-09-29T12:06:43.742Z,19.55
2018-09-29T12:08:43.805Z,19.53
2018-09-29T12:09:43.703Z,19.55
2018-09-29T12:10:43.545Z,19.56
2018-09-29T12:11:43.577Z,19.55
2018-09-29T12:13:43.787Z,19.53
2018-09-29T12:14:43.671Z,19.54
2018-09-29T12:15:43.613Z,19.52
2018-09-29T12:16:43.793Z,19.5
2018-09-29T12:18:43.716Z,19.49
2018-09-29T12:19:44.164Z,19.5
2018-09-29T12:20:43.758Z,19.48
2018-09-29T12:21:43.644Z,19.47
2018-09-29T12:26:00.726Z,19.59
2018-09-29T12:27:00.727Z,19.65
2018-09-29T12:28:01.126Z,19.68
2018-09-29T12:29:00.730Z,19.7
2018-09-29T12:30:01.268Z,19.72
2018-09-29T12:31:01.180Z,19.73
2018-09-29T12:32:01.489Z,19.74
2018-09-29T12:33:00.997Z,19.75
2018-09-29T12:34:01.105Z,19.75
2018-09-29T12:35:01.024Z,19.76
2018-09-29T12:36:00.756Z,19.77
2018-09-29T12:37:01.009Z,19.78
2018-09-29T12:38:00.629Z,19.78
2018-09-29T12:39:00.685Z,19.81
2018-09-29T12:40:00.722Z,19.81
2018-09-29T12:41:00.840Z,19.81
2018-09-29T12:42:00.878Z,19.79
2018-09-29T12:43:01.021Z,19.78
2018-09-29T12:44:00.741Z,19.74
2018-09-29T12:45:00.898Z,19.71
2018-09-29T12:46:00.961Z,19.62
2018-09-29T12:47:00.722Z,19.63
2018-09-29T12:48:00.883Z,19.62
2018-09-29T12:49:00.680Z,19.57
2018-09-29T12:50:01.074Z,19.56
2018-09-29T12:51:00.567Z,19.53
2018-09-29T12:52:00.782Z,19.49
2018-09-29T12:53:00.753Z,19.49
2018-09-29T12:54:00.591Z,19.48
2018-09-29T12:55:00.790Z,19.45
2018-09-29T12:56:00.757Z,19.45
2018-09-29T12:57:00.713Z,19.43
2018-09-29T12:58:01.297Z,19.41
2018-09-29T12:59:01.088Z,19.42
2018-09-29T13:00:00.821Z,19.4
2018-09-29T13:01:01.606Z,19.44
2018-09-29T13:02:00.920Z,19.47
2018-09-29T13:03:00.834Z,19.52
2018-09-29T13:04:00.846Z,19.54
2018-09-29T13:05:00.538Z,19.55
2018-09-29T13:06:00.850Z,19.58
2018-09-29T13:07:00.619Z,19.6
2018-09-29T13:08:00.769Z,19.61
2018-09-29T13:09:01.196Z,19.63
2018-09-29T13:10:00.567Z,19.63
2018-09-29T13:11:00.825Z,19.61
2018-09-29T13:12:00.937Z,19.6
2018-09-29T13:13:00.863Z,19.59
2018-09-29T13:14:01.152Z,19.59
2018-09-29T13:15:00.741Z,19.58
2018-09-29T13:16:00.706Z,19.57
2018-09-29T13:17:01.152Z,19.56
2018-09-29T13:18:00.660Z,19.55
2018-09-29T13:19:00.743Z,19.55
2018-09-29T13:20:00.699Z,19.54
2018-09-29T13:21:00.842Z,19.54
2018-09-29T13:22:00.686Z,19.53
2018-09-29T13:23:00.733Z,19.53
2018-09-29T13:24:00.984Z,19.52
2018-09-29T13:25:00.977Z,19.52
2018-09-29T13:26:01.157Z,19.52
2018-09-29T13:27:00.988Z,19.52
2018-09-29T13:28:00.849Z,19.51
2018-09-29T13:29:00.885Z,19.51
2018-09-29T13:30:01.194Z,19.51
2018-09-29T13:31:00.802Z,19.5
2018-09-29T13:32:00.597Z,19.5
2018-09-29T13:33:00.817Z,19.5
2018-09-29T13:34:00.806Z,19.5
2018-09-29T13:35:00.934Z,19.5
2018-09-29T13:36:00.654Z,19.5